Station LDTM4 - 9087023 - Ludington, MI Image indicating link to RSS feed of recent meteorological observations for station LDTM4


Conditions at LDTM4 as of
(11:30 am EDT)
1530 GMT on 07/13/2024:
     

Click on the graph icon in the table below to see a time series plot of the last five days of that observation.

5-day plot - Wind Direction Wind Direction (WDIR):SSW ( 200 deg true )
5-day plot - Wind Speed Wind Speed (WSPD): 5.1 kts
5-day plot - Wind Gust Wind Gust (GST): 8.0 kts
5-day plot - Air Temperature Air Temperature (ATMP): 73.8 °F
5-day plot - Dew Point Dew Point (DEWP): 62.2 °F
5-day plot - Wind Speed at 10 Meters Wind Speed at 10 meters (WSPD10M): 5.8 kts
5-day plot - Wind Speed at 20 Meters Wind Speed at 20 meters (WSPD20M): 5.8 kts
5-day plot -  Wind Speed, Wind Gust and Atmospheric Pressure Combined plot of Wind Speed, Gust, and Air Pressure
NOS Water Level Observation Network Water Level
Previous observations
TIME
(EDT)
5-day plot - Wind Direction
WDIR
 
5-day plot - Wind Speed
WSPD
kts
5-day plot - Wind Gust
GST
kts
5-day plot - Wave Height
WVHT
ft
5-day plot - Dominant Wave Period
DPD
sec
5-day plot - Average Wave Period
APD
sec
5-day plot - Mean Wave Direction
MWD
 
5-day plot - Atmospheric Pressure
PRES
in
5-day plot - Pressure Tendency
PTDY
in
5-day plot - Air Temperature
ATMP
°F
5-day plot - Water Temperature
WTMP
°F
5-day plot - Dew Point
DEWP
°F
5-day plot - Salinity
SAL
psu
5-day plot - Visibility
VIS
nmi
5-day plot - Tide (above MLLW)
TIDE
ft
2024-07-13 11:24 amSSW 5.1 8.0------ 73.6- 63.0---
2024-07-13 11:18 amSSW 5.1 8.9------ 73.4- 61.9---
2024-07-13 11:12 amSSW 8.0 9.9------ 73.2- 61.9---
2024-07-13 11:06 amSSW 7.0 8.0------ 73.8- 62.2---
2024-07-13 11:00 amSSW 7.0 8.9------ 73.8- 61.0---
2024-07-13 10:54 amSSW 6.0 8.9------ 73.8- 61.9---
2024-07-13 10:48 amSSW 5.1 8.0------ 73.9- 61.7---
2024-07-13 10:42 amSSW 5.1 7.0------ 73.6- 61.5---
2024-07-13 10:36 amSSW 6.0 8.0------ 73.2- 61.9---
2024-07-13 10:30 amSSW 6.0 7.0------ 73.0- 62.6---
2024-07-13 10:24 amSSW 5.1 7.0------ 73.2- 63.1---
2024-07-13 10:18 amSSW 5.1 7.0------ 72.9- 63.0---
2024-07-13 10:12 amSSW 5.1 8.0------ 72.7- 63.7---
2024-07-13 10:06 amSSW 5.1 7.0------ 72.5- 63.7---
2024-07-13 10:00 amSSW 5.1 7.0------ 72.5- 63.5---
2024-07-13 09:54 amSSW 5.1 6.0------ 72.7- 64.0---
2024-07-13 09:48 amSSW 4.1 8.0------ 72.5- 63.9---
2024-07-13 09:42 amSSW 4.1 8.0------ 72.5- 63.5---
2024-07-13 09:36 amSSW 5.1 8.0------ 72.7- 63.3---
2024-07-13 09:30 amSSW 5.1 7.0------ 72.7- 63.1---
2024-07-13 09:24 amSSW 2.9 5.1------ 72.7- 64.0---
2024-07-13 09:18 amSSW 4.1 5.1------ 72.5- 63.1---
2024-07-13 09:12 am S 2.9 5.1------ 72.9- 63.3---
2024-07-13 09:06 amSSW 2.9 5.1------ 72.5- 63.5---
2024-07-13 09:00 am S 2.9 5.1------ 72.3- 63.9---
2024-07-13 08:54 am S 1.9 5.1------ 72.3- 64.0---
2024-07-13 08:48 am S 2.9 5.1------ 71.8- 63.7---
2024-07-13 08:42 am S 2.9 4.1------ 71.8- 63.9---
2024-07-13 08:36 am E 1.9 2.9------ 70.5- 63.1---
2024-07-13 08:30 am E 2.9 4.1------ 69.4- 62.2---
2024-07-13 08:24 amENE 1.9 2.9------ 69.3- 62.2---
2024-07-13 08:18 amENE 1.0 2.9------ 68.7- 62.2---
2024-07-13 08:12 amENE 1.9 4.1------ 67.5- 61.3---
2024-07-13 08:06 am E 2.9 4.1------ 67.3- 61.3---
2024-07-13 08:00 amENE 1.9 2.9------ 67.8- 61.9---
2024-07-13 07:54 amENE 1.9 4.1------ 66.9- 61.5---
2024-07-13 07:48 amENE 1.9 2.9------------
2024-07-13 07:42 am E 2.9 2.9------------
2024-07-13 07:36 amENE 1.9 2.9------------
2024-07-13 07:30 amENE 1.9 2.9------------
2024-07-13 07:24 amENE 1.9 2.9------------
2024-07-13 07:18 amENE 2.9 4.1------ 62.8- 59.0---
2024-07-13 07:12 amENE 1.9 2.9------ 62.4- 59.0---
2024-07-13 07:06 amENE 2.9 4.1------ 61.9- 58.5---
2024-07-13 07:00 am E 1.9 2.9------ 61.7- 58.5---
2024-07-13 06:54 amENE 2.9 2.9------ 61.3- 58.1---
2024-07-13 06:48 am E 2.9 4.1------ 61.3- 58.1---
2024-07-13 06:42 amENE 2.9 4.1------ 61.3- 58.1---
2024-07-13 06:36 am E 2.9 2.9------ 61.3- 58.3---
2024-07-13 06:30 am E 1.9 4.1------ 61.5- 58.5---
2024-07-13 06:24 am E 1.9 4.1------ 61.2- 58.1---
2024-07-13 06:18 am E 2.9 4.1------ 61.5- 58.5---
2024-07-13 06:12 am E 2.9 4.1------ 61.5- 58.5---
2024-07-13 06:06 am NE 1.9 2.9------ 61.5- 58.5---
2024-07-13 06:00 amENE 1.9 2.9------------
2024-07-13 05:54 amENE 1.9 2.9------------
2024-07-13 05:48 amENE 2.9 2.9------------
2024-07-13 05:42 am E 2.9 4.1------------
2024-07-13 05:36 amENE 2.9 4.1------------
2024-07-13 05:24 am E 2.9 4.1------ 61.5- 58.6---
2024-07-13 05:18 am E 2.9 4.1------------
2024-07-13 05:12 amENE 2.9 4.1------ 61.5- 58.6---
2024-07-13 05:06 am E 2.9 4.1------ 61.7- 58.6---
2024-07-13 05:00 am E 1.9 2.9------ 61.7- 58.8---
2024-07-13 04:54 amENE 2.9 4.1------ 61.9- 59.0---
2024-07-13 04:48 am E 2.9 4.1------ 62.1- 59.0---
2024-07-13 04:42 am E 2.9 2.9------ 62.1- 59.0---
2024-07-13 04:36 amENE 2.9 2.9------ 61.9- 58.8---
2024-07-13 04:30 amENE 2.9 2.9------ 61.9- 58.8---
2024-07-13 04:24 am E 2.9 4.1------ 62.1- 59.0---
2024-07-13 04:18 am E 4.1 5.1------------
2024-07-13 04:12 amENE 2.9 4.1------ 62.1- 58.8---
2024-07-13 04:06 am E 4.1 5.1------ 61.9- 58.6---
2024-07-13 04:00 amENE 2.9 4.1------ 61.7- 58.5---
2024-07-13 03:54 am E 1.9 4.1------ 61.9- 58.6---
2024-07-13 03:48 am E 2.9 4.1------ 61.9- 58.5---
2024-07-13 03:42 am E 2.9 4.1------ 61.9- 58.5---
2024-07-13 03:36 am E 2.9 4.1------ 62.1- 58.6---
2024-07-13 03:30 am E 2.9 4.1------ 62.1- 58.6---
2024-07-13 03:24 am E 2.9 4.1------ 62.1- 58.6---
2024-07-13 03:18 am E 2.9 4.1------------
2024-07-13 03:12 amENE 1.9 2.9------ 62.1- 58.5---
2024-07-13 03:06 am E 1.9 2.9------ 62.1- 58.5---
2024-07-13 03:00 amENE 2.9 4.1------ 62.1- 58.3---
2024-07-13 02:54 am E 2.9 4.1------ 62.4- 58.5---
2024-07-13 02:48 am E 2.9 4.1------------
2024-07-13 02:42 amENE 1.9 5.1------ 62.8- 58.8---
2024-07-13 02:36 am E 2.9 4.1------ 62.6- 58.6---
2024-07-13 02:30 am E 2.9 4.1------ 63.1- 59.0---
2024-07-13 02:24 amENE 2.9 2.9------ 62.8- 58.6---
2024-07-13 02:18 am E 1.9 2.9------------
2024-07-13 02:12 am E 1.9 4.1------ 63.0- 58.8---
2024-07-13 02:06 amENE 4.1 4.1------ 63.0- 58.5---
2024-07-13 02:00 amENE 2.9 4.1------ 63.1- 58.5---
2024-07-13 01:54 amENE 1.9 2.9------ 63.7- 58.8---
2024-07-13 01:48 am E 1.9 2.9------ 63.7- 58.8---
2024-07-13 01:42 amENE 1.9 2.9------ 63.9- 58.6---
2024-07-13 01:36 amENE 1.9 2.9------ 64.2- 58.8---
2024-07-13 01:30 amENE 1.9 1.9------ 64.6- 59.2---
2024-07-13 01:24 am E 1.9 2.9------ 64.4- 59.2---
2024-07-13 01:18 am E 1.9 2.9------ 64.4- 59.2---
2024-07-13 01:12 am E 2.9 4.1------ 64.8- 59.2---
2024-07-13 01:06 amENE 2.9 2.9------ 65.3- 59.5---
2024-07-13 01:00 amENE 1.9 2.9------ 65.3- 59.2---
2024-07-13 12:54 amENE 2.9 2.9------ 65.5- 59.0---
2024-07-13 12:48 am E 1.0 1.9------------
2024-07-13 12:42 am E 1.9 1.9------ 65.8- 59.7---
2024-07-13 12:36 am E 1.9 4.1------ 65.7- 59.5---
2024-07-13 12:30 am E 2.9 4.1------ 66.0- 59.4---
2024-07-13 12:24 amENE 1.9 1.9------ 67.1- 59.5---
2024-07-13 12:18 am- 0.0 1.9------------
2024-07-13 12:12 am- 0.0 0.0------ 69.4- 60.8---
2024-07-13 12:06 am- 0.0 1.9------ 70.5- 61.0---
2024-07-13 12:00 am S 1.0 1.9------ 70.5- 60.8---
2024-07-12 11:54 pm- 0.0 1.9------ 70.0- 61.0---
2024-07-12 11:48 pm- 0.0 1.0------ 69.6- 60.6---
2024-07-12 11:42 pm- 0.0 1.9------ 68.9- 60.4---
2024-07-12 11:36 pm E 1.0 1.9------ 69.6- 60.6---
2024-07-12 11:30 pm E 1.0 1.9------ 70.2- 60.8---
2024-07-12 11:24 pm- 0.0 1.0------ 69.8- 60.3---
2024-07-12 11:18 pm- 0.0 1.9------ 70.0- 60.3---
2024-07-12 11:12 pmESE 1.0 2.9------ 71.2- 60.1---
2024-07-12 11:06 pmSSE 1.9 4.1------ 71.6- 60.1---
2024-07-12 11:00 pm S 1.9 2.9------ 71.6- 59.9---
2024-07-12 10:54 pmSSW 1.0 1.9------ 71.6- 59.9---
2024-07-12 10:48 pm S 1.0 2.9------ 71.8- 60.3---
2024-07-12 10:42 pmSSW 1.0 4.1------ 72.0- 60.6---
2024-07-12 10:36 pm S 1.9 2.9------ 72.1- 60.3---
2024-07-12 10:30 pmSSW 1.0 1.9------ 71.8- 60.3---
2024-07-12 10:24 pm- 0.0 2.9------ 72.0- 60.3---
2024-07-12 10:12 pmSSW 2.9 4.1------ 72.3- 60.4---
2024-07-12 10:06 pm S 1.9 1.9------ 72.1- 60.6---
2024-07-12 10:00 pm S 1.0 1.9------ 72.1- 61.0---
2024-07-12 09:54 pm- 0.0 1.0------ 71.8- 61.0---
2024-07-12 09:42 pmSSW 1.0 5.1------ 72.5- 61.2---
2024-07-12 09:36 pmSSW 1.9 4.1------ 72.7- 61.0---
2024-07-12 09:30 pm SW 1.0 4.1------ 72.7- 60.6---
2024-07-12 09:24 pm- 0.0 4.1------ 72.9- 60.6---
2024-07-12 09:18 pmSSW 1.9 6.0------------
2024-07-12 09:12 pmSSW 2.9 8.0------ 72.9- 60.6---
2024-07-12 09:06 pmSSW 4.1 8.9------ 73.0- 60.4---
2024-07-12 09:00 pmSSW 6.0 9.9------ 73.2- 60.3---
2024-07-12 08:54 pmSSW 7.0 8.9------ 73.4- 60.1---
2024-07-12 08:48 pmSSW 5.1 7.0------ 73.8- 59.4---
2024-07-12 08:42 pmSSW 4.1 7.0------ 73.9- 57.9---
2024-07-12 08:36 pmSSW 6.0 7.0------ 74.5- 55.4---
2024-07-12 08:30 pmSSW 2.9 5.1------ 74.7- 55.6---
2024-07-12 08:24 pm SW 1.0 1.9------ 75.0- 55.9---
2024-07-12 08:18 pm- 0.0 2.9------ 75.2- 56.7---
2024-07-12 08:12 pm S 2.9 4.1------ 75.0- 55.6---
2024-07-12 08:06 pm SW 1.0 4.1------ 75.2- 56.7---
2024-07-12 08:00 pm- 0.0 2.9------ 75.0- 57.4---
2024-07-12 07:54 pmWSW 1.0 2.9------ 75.2- 57.6---
2024-07-12 07:48 pm W 1.0 2.9------ 75.7- 56.7---
2024-07-12 07:42 pm- 0.0 1.9------ 76.1- 56.8---
2024-07-12 07:36 pmWSW 1.0 1.9------ 76.5- 57.2---
2024-07-12 07:30 pm- 0.0 1.9------ 76.5- 57.6---
2024-07-12 07:24 pmWSW 1.0 1.9------ 76.3- 59.2---
2024-07-12 07:18 pmWSW 1.0 1.9------ 75.9- 59.7---
2024-07-12 07:12 pmSSW 1.0 1.9------ 76.1- 58.6---
2024-07-12 07:06 pm- 0.0 1.0------ 76.5- 61.2---
2024-07-12 07:00 pmSSW 1.9 2.9------ 74.7- 60.1---
2024-07-12 06:54 pmSSW 1.9 2.9------ 74.3- 61.2---
2024-07-12 06:48 pm- 0.0 4.1------------
2024-07-12 06:42 pm W 2.9 4.1------------
2024-07-12 06:36 pm SW 1.0 2.9------------
2024-07-12 06:30 pmWSW 1.9 4.1------ 75.2- 61.9---
2024-07-12 06:24 pmWSW 1.9 2.9------ 75.0- 61.5---
2024-07-12 06:18 pmWSW 1.0 5.1------------
2024-07-12 06:12 pm SW 1.0 2.9------------
2024-07-12 06:06 pm SW 1.0 4.1------------
2024-07-12 06:00 pm- 0.0 2.9------ 74.8- 63.0---
2024-07-12 05:54 pm SW 1.0 5.1------ 74.7- 63.9---
2024-07-12 05:48 pmWSW 1.0 4.1------ 75.4- 63.1---
2024-07-12 05:42 pmWSW 2.9 5.1------ 75.2- 62.2---
2024-07-12 05:36 pm- 0.0 2.9------ 76.1- 62.1---
2024-07-12 05:30 pm SW 1.0 4.1------ 75.9- 62.2---
2024-07-12 05:24 pmWSW 1.9 5.1------ 75.6- 62.1---
2024-07-12 05:18 pm W 1.9 5.1------------
2024-07-12 05:12 pmWSW 1.0 4.1------ 75.9- 61.9---
2024-07-12 05:06 pmWSW 1.9 5.1------ 75.9- 61.7---
2024-07-12 05:00 pmWSW 1.9 4.1------ 75.9- 62.6---
2024-07-12 04:54 pmWSW 1.0 2.9------ 75.6- 63.9---
2024-07-12 04:48 pm SW 1.0 2.9------ 75.4- 63.9---
2024-07-12 04:42 pmWSW 1.9 4.1------ 75.6- 63.1---
2024-07-12 04:36 pm W 1.9 4.1------ 74.8- 63.9---
2024-07-12 04:30 pm- 0.0 1.9------ 75.2- 64.6---
2024-07-12 04:24 pmWSW 1.0 4.1------ 74.8- 64.8---
2024-07-12 04:18 pmWSW 1.9 4.1------------
2024-07-12 04:12 pmWSW 1.9 4.1------ 74.3- 65.1---
2024-07-12 04:06 pmSSW 1.9 4.1------ 73.9- 65.1---
2024-07-12 04:00 pm- 0.0 2.9------ 74.8- 65.7---
2024-07-12 03:54 pm- 0.0 5.1------ 74.5- 65.8---
2024-07-12 03:48 pmWSW 1.9 4.1------ 74.5- 65.5---
2024-07-12 03:42 pmWSW 1.0 4.1------ 74.8- 65.8---
2024-07-12 03:36 pm W 4.1 6.0------ 73.6- 65.1---
2024-07-12 03:30 pmWSW 1.9 4.1------ 74.5- 65.7---
2024-07-12 03:24 pmWSW 1.9 5.1------ 74.3- 65.7---
2024-07-12 03:18 pm W 2.9 6.0------ 73.8- 66.0---
2024-07-12 03:12 pm W 2.9 7.0------ 73.6- 66.2---
2024-07-12 03:06 pm W 2.9 7.0------ 73.2- 65.7---
2024-07-12 03:00 pm W 6.0 8.0------ 73.0- 64.8---
2024-07-12 02:54 pm W 4.1 7.0------ 74.3- 64.8---
2024-07-12 02:48 pm W 5.1 7.0------ 73.9- 63.5---
2024-07-12 02:42 pm W 5.1 7.0------ 73.9- 62.6---
2024-07-12 02:36 pmWSW 4.1 6.0------ 74.7- 62.1---
2024-07-12 02:30 pm W 2.9 6.0------ 75.7- 62.1---
2024-07-12 02:24 pm W 2.9 5.1------ 75.6- 61.3---
2024-07-12 02:18 pm W 4.1 6.0------ 74.8- 61.3---
2024-07-12 02:12 pm W 4.1 6.0------ 74.8- 62.4---
2024-07-12 02:06 pm W 2.9 6.0------ 75.7- 62.4---
2024-07-12 02:00 pm W 2.9 6.0------ 75.9- 61.7---
2024-07-12 01:54 pm- 0.0 2.9------ 75.9- 62.8---
2024-07-12 01:48 pm- 0.0 1.9------ 75.7- 62.4---
2024-07-12 01:42 pm SW 1.0 1.9------ 75.4- 63.9---
2024-07-12 01:36 pm- 0.0 2.9------ 75.2- 63.5---
2024-07-12 01:30 pm- 0.0 1.9------ 75.6- 63.7---
2024-07-12 01:24 pm- 0.0 2.9------ 75.7- 63.7---
2024-07-12 01:18 pm- 0.0 1.9------------
2024-07-12 01:12 pm- 0.0 2.9------ 75.4- 64.6---
2024-07-12 01:06 pmSSW 2.9 4.1------ 74.3- 64.4---
2024-07-12 01:00 pm SW 1.0 1.9------ 74.8- 64.2---
2024-07-12 12:54 pm- 0.0 2.9------ 74.8- 64.6---
2024-07-12 12:48 pm- 0.0 2.9------ 74.5- 64.9---
2024-07-12 12:42 pm- 0.0 2.9------ 74.5- 64.4---
2024-07-12 12:36 pmWSW 1.0 4.1------ 74.8- 64.4---
2024-07-12 12:30 pm W 2.9 5.1------ 74.8- 63.1---
2024-07-12 12:24 pm- 0.0 2.9------ 75.9- 62.8---
2024-07-12 12:18 pm SW 1.0 1.9------------
2024-07-12 12:12 pmWSW 1.9 2.9------ 76.1- 63.3---
2024-07-12 12:06 pmWSW 1.9 2.9------ 75.4- 63.5---
2024-07-12 11:54 am- 0.0 2.9------ 75.0- 63.7---